4 luglio 2022

Tempo Codice Tempo metereologico Temp. Vista Base nuvolosa Vento METAR/SPECI
1:00 pm
M
57 °F 15 mi 2.700 ft 130° 130° 11 kt METAR CYYJ 042000Z 13011KT 15SM FEW012 BKN027 BKN080 14/14 A2996 RMK SC1SC6AC1 SC TR SLP148
12:00 pm
V
57 °F 15 mi 3.500 ft 130° 130° 9 kt METAR CYYJ 041900Z 13009KT 15SM FEW010 BKN035 OVC080 14/14 A2995 RMK SC1SC6AC2 SC TR SLP144
11:00 am
V
55 °F 15 mi 7.300 ft 140° 140° 12 kt METAR CYYJ 041800Z 14012KT 15SM FEW008 SCT055 BKN073 BKN100 13/13 A2995 RMK SF1SC3AC3AC1 SF TR SLP143
10:20 am
V
54 °F 12 mi 5.200 ft 140° 140° 11 kt METAR CYYJ 041720Z 14011KT 12SM FEW007 BKN052 OVC067 12/12 A2995 RMK SF1SC7AC1 SF TR SLP144
10:00 am
V
54 °F 8 mi 5.300 ft 140° 140° 10 kt METAR CYYJ 041700Z 14010KT 8SM -RA FEW007 BKN053 OVC066 12/12 A2995 RMK SF1SC7AC1 SF TR SLP143
9:33 am
V
54 °F 15 mi 4.200 ft 130° 130° 9 kt METAR CYYJ 041633Z 13009KT 15SM -RA FEW007 BKN042 OVC062 12/12 A2994 RMK SF1SC6SC2 SF TR SLP141
9:00 am
V
54 °F 15 mi 4.200 ft 140° 140° 11 kt METAR CYYJ 041600Z 14011KT 15SM FEW007 BKN042 OVC075 12/12 A2994 RMK SF1SC7AC1 SF TR SLP142
8:00 am
V
55 °F 12 mi 3.500 ft 100° 100° 5 kt METAR CYYJ 041500Z 10005KT 12SM FEW007 FEW020 BKN035 OVC220 13/13 A2994 RMK SF1SC1SC6CI1 SF TR SLP139
7:00 am
V
54 °F 15 mi 4.500 ft 140° 140° 6 kt METAR CYYJ 041400Z 14006KT 15SM FEW007 FEW025 BKN045 OVC064 12/12 A2994 RMK SF1SC1SC5SC2 SF TR SLP139
6:49 am
V
55 °F 15 mi 5.000 ft 130° 130° 6 kt METAR CYYJ 041349Z 13006KT 15SM FEW005 FEW025 BKN050 OVC067 13/13 A2993 RMK SF1SC1SC5AC2 SF TR SLP138
6:00 am
V
54 °F 20 mi 4.200 ft 130° 130° 6 kt METAR CYYJ 041300Z 13006KT 20SM -RA FEW004 BKN042 BKN061 OVC081 12/12 A2993 RMK ST1SC6SC1AC1 ST TR SLP137
5:34 am
V
54 °F 20 mi 4.300 ft 120° 120° 8 kt METAR CYYJ 041234Z 12008KT 20SM -RA FEW020 BKN043 BKN060 OVC082 12/12 A2993 RMK SC1SC5SC2AC1 SC TR SLP136
5:00 am
V
57 °F 30 mi 8.400 ft 190° 190° 8 kt METAR CYYJ 041200Z 19008KT 30SM FEW025 SCT040 SCT065 OVC084 14/13 A2992 RMK SC1SC3SC1AC4 SC TR SLP135
4:00 am
V
55 °F 20 mi 8.300 ft 070° 070° 3 kt METAR CYYJ 041100Z 07003KT 20SM FEW007 FEW041 SCT064 OVC083 13/13 A2992 RMK SF1SC1SC3AC4 SF TR SLP135
3:00 am
V
54 °F 15 mi 8.500 ft 120° 120° 9 kt METAR CYYJ 041000Z 12009KT 15SM FEW006 SCT050 OVC085 12/12 A2992 RMK SF1SC4AC4 SF TR SLP133
2:00 am
V
55 °F 15 mi 4.600 ft 120° 120° 5 kt METAR CYYJ 040900Z 12005KT 15SM FEW004 FEW017 BKN046 OVC080 13/13 A2992 RMK ST1SC1SC6AC1 ST TR SLP133
1:00 am
V
55 °F 15 mi 4.900 ft 140° 140° 5 kt METAR CYYJ 040800Z 14005KT 15SM FEW004 BKN049 OVC082 13/13 A2992 RMK ST1SC6AC2 ST TR INTMT -RA SLP133
12:00 am
V
57 °F 15 mi 5.500 ft 190° 190° 4 kt METAR CYYJ 040700Z 19004KT 150V220 15SM -RA FEW003 BKN055 OVC084 14/13 A2992 RMK ST1SC5AC3 ST TR SLP135

3 luglio 2022

Tempo Codice Tempo metereologico Temp. Vista Base nuvolosa Vento METAR/SPECI
11:43 pm
V
57 °F 15 mi 5.300 ft 160° 160° 6 kt METAR CYYJ 040643Z 16006KT 15SM -RA FEW003 BKN053 OVC083 14/14 A2992 RMK ST1SC5AC3 ST TR SLP134
11:00 pm
V
55 °F 15 mi 5.000 ft 150° 150° 8 kt METAR CYYJ 040600Z 15008KT 15SM FEW004 BKN050 OVC085 13/13 A2992 RMK ST1SC5AC3 ST TR INTMT -RA SLP133
10:00 pm
V
57 °F 15 mi 4.700 ft 190° 190° 5 kt METAR CYYJ 040500Z 19005KT 15SM -RA FEW003 BKN047 OVC086 14/14 A2992 RMK ST1SC5AC3 ST TR SLP133
9:00 pm
V
57 °F 15 mi 7.900 ft 160° 160° 4 kt METAR CYYJ 040400Z 16004KT 15SM -RA FEW007 FEW043 BKN079 OVC100 14/14 A2992 RMK SF1SC2AC5AC1 SF TR SLP133
8:00 pm
V
57 °F 15 mi 8.700 ft Var Var 2 kt METAR CYYJ 040300Z VRB02KT 15SM -RA FEW004 SCT070 BKN087 OVC110 14/14 A2991 RMK SF1AC4AC3AC1 SF TR SLP131
7:00 pm
V
55 °F 12 mi 6.800 ft 080° 080° 3 kt METAR CYYJ 040200Z 08003KT 12SM -RA FEW005 FEW011 SCT019 OVC068 13/13 A2991 RMK SF1SF1SC2AC5 SF TR SLP129
6:00 pm
V
55 °F 12 mi 3.300 ft 110° 110° 4 kt METAR CYYJ 040100Z 11004KT 12SM -RA FEW008 FEW019 BKN033 OVC047 13/13 A2990 RMK SF1SC2SC4SC2 SF TR SLP128
5:00 pm
V
55 °F 6 mi 3.800 ft Var Var 2 kt METAR CYYJ 040000Z VRB02KT 6SM -RA BR FEW004 FEW011 SCT018 OVC038 13/13 A2990 RMK SF1SF1SC3SC4 SF TR /R10/ SLP127
4:09 pm
I
55 °F 3 mi 1.700 ft 080° 080° 3 kt METAR CYYJ 032309Z 08003KT 070V130 3SM -RA BR FEW003 SCT009 BKN017 OVC028 13/13 A2991 RMK SF1SF2SC3SC2 SLP129
4:00 pm
M
55 °F 4 mi 1.700 ft 120° 120° 3 kt METAR CYYJ 032300Z 12003KT 4SM -RA BR FEW004 SCT010 BKN017 OVC028 13/13 A2991 RMK SF1SF2SC3SC2 SLP130
3:00 pm
M
55 °F 5 mi 1.900 ft 100° 100° 5 kt METAR CYYJ 032200Z 10005KT 5SM -RA BR FEW004 FEW008 BKN019 OVC032 13/13 A2991 RMK SF1SF2SC3SC3 SF TR SLP129
2:21 pm
I
57 °F 3 mi 2.800 ft 080° 080° 4 kt METAR CYYJ 032121Z 08004KT 3SM -RA BR FEW003 FEW008 SCT018 BKN028 OVC044 14/14 A2990 RMK SF1SF1SC2SC3SC1 SLP127
2:00 pm
M
55 °F 4 mi 3.000 ft 080° 080° 4 kt METAR CYYJ 032100Z 08004KT 4SM -RA BR FEW003 FEW008 BKN030 OVC044 13/13 A2990 RMK SF1SF1SC4SC3 SF TR SLP126
1:37 pm
I
55 °F 3 mi 3.200 ft 090° 090° 5 kt METAR CYYJ 032037Z 09005KT 3SM -RA BR FEW008 BKN032 OVC048 13/13 A2990 RMK SF2SC4SC2 SLP126
1:00 pm
M
55 °F 8 mi 2.800 ft 120° 120° 4 kt METAR CYYJ 032000Z 12004KT 8SM -RA FEW007 BKN028 OVC042 13/13 A2989 RMK SF1SC5SC3 SF TR SLP125
12:00 pm
V
55 °F 10 mi 3.800 ft 140° 140° 4 kt METAR CYYJ 031900Z 14004KT 10SM -RA FEW008 SCT026 BKN038 OVC050 13/13 A2990 RMK SF1SC4SC3SC1 SF TR SLP126
11:38 am
M
55 °F 7 mi 2.500 ft 120° 120° 5 kt METAR CYYJ 031838Z 12005KT 7SM -RA FEW007 BKN025 OVC038 13/13 A2989 RMK SF1SC5NS3 SF TR SLP125
11:00 am
I
55 °F 3 mi 2.600 ft 140° 140° 4 kt METAR CYYJ 031800Z 14004KT 3SM RA FEW005 BKN026 OVC038 13/13 A2989 RMK SF1SC5NS3 SF TR /R11/ SLP124
10:09 am
M
54 °F 4 mi 2.600 ft 140° 140° 3 kt METAR CYYJ 031709Z 14003KT 4SM RA FEW005 BKN026 OVC038 12/12 A2989 RMK SF1SC5NS3 SF TR SLP124
10:00 am
I
54 °F 3 mi 2.400 ft 130° 130° 4 kt METAR CYYJ 031700Z 13004KT 3SM +RA FEW005 BKN024 OVC037 12/12 A2989 RMK SF1SC5NS3 SF TR SLP123
9:41 am
I
54 °F 3 mi 2.500 ft 110° 110° 4 kt METAR CYYJ 031641Z 11004KT 070V130 3SM +RA FEW005 BKN025 OVC038 12/12 A2989 RMK SF1SC5NS3 SF TR SLP123
9:28 am
V
55 °F 7 mi 3.800 ft 070° 070° 7 kt METAR CYYJ 031628Z 07007KT 7SM RA FEW009 SCT026 BKN038 OVC070 13/13 A2989 RMK SF1SC4SC2AS2 SF TR SLP122
9:22 am
V
55 °F 10 mi 3.800 ft 060° 060° 6 kt METAR CYYJ 031622Z 06006KT 030V090 10SM RA SCT026 BKN038 BKN055 OVC070 13/13 A2988 RMK SC3SC2SC1AS2 SLP121
9:00 am
M
55 °F 15 mi 2.700 ft 150° 150° 4 kt METAR CYYJ 031600Z 15004KT 15SM -RA BKN027 BKN045 OVC070 13/13 A2988 RMK SC5SC2AC1 SLP119
8:32 am
M
57 °F 30 mi 2.700 ft 110° 110° 4 kt METAR CYYJ 031532Z 11004KT 30SM -RA BKN027 BKN050 BKN080 14/14 A2988 RMK SC5SC2AC1 AC TR SLP121
8:00 am
M
57 °F 30 mi 2.800 ft 140° 140° 4 kt METAR CYYJ 031500Z 14004KT 30SM BKN028 BKN055 BKN080 14/14 A2988 RMK SC5SC2AC1 AC TR SLP119
7:00 am
V
61 °F 30 mi 6.400 ft 270° 270° 5 kt METAR CYYJ 031400Z 27005KT 30SM SCT036 BKN064 BKN110 16/12 A2986 RMK SC3SC3AC1 SLP115 DENSITY ALT 200FT
6:29 am
V
59 °F 30 mi 7.000 ft 280° 280° 7 kt METAR CYYJ 031329Z 28007KT 30SM -RA SCT032 BKN070 BKN130 15/11 A2987 RMK SC3AC3AC1 SLP116 DENSITY ALT 200FT
6:00 am
V
59 °F 30 mi 6.800 ft 290° 290° 7 kt METAR CYYJ 031300Z 29007KT 30SM BKN068 BKN130 15/12 A2986 RMK AC5AC2 SLP115 DENSITY ALT 200FT
5:00 am
V
55 °F 30 mi 14.000 ft 170° 170° 3 kt METAR CYYJ 031200Z 17003KT 30SM FEW071 BKN140 13/13 A2986 RMK AC2AC5 SLP113
4:13 am
V
57 °F 30 mi 14.000 ft 280° 280° 4 kt METAR CYYJ 031113Z 28004KT 220V290 30SM FEW080 BKN140 14/14 A2985 RMK AC2AC4 SLP110 DENSITY ALT 100FT
4:00 am
V
57 °F 30 mi 12.000 ft 250° 250° 4 kt METAR CYYJ 031100Z 25004KT 30SM -RA SCT082 BKN120 14/14 A2985 RMK AC3AC3 SLP110 DENSITY ALT 100FT
3:51 am
V
55 °F 30 mi 12.000 ft 210° 210° 5 kt METAR CYYJ 031051Z 21005KT 160V280 30SM -RA SCT082 BKN120 13/13 A2985 RMK AC3AC3 SLP110
3:00 am
V
59 °F 30 mi 15.000 ft 290° 290° 8 kt METAR CYYJ 031000Z 29008KT 30SM SCT120 BKN150 BKN170 15/12 A2985 RMK AC3AC3AC1 SLP109 DENSITY ALT 200FT
2:00 am
V
55 °F 30 mi 21.000 ft 070° 070° 3 kt METAR CYYJ 030900Z 07003KT 010V080 30SM FEW170 BKN210 13/13 A2985 RMK AC2CI4 SLP111
1:00 am
V
55 °F 30 mi 22.000 ft Var Var 2 kt METAR CYYJ 030800Z VRB02KT 30SM FEW180 BKN220 13/13 A2985 RMK AC2CI5 SLP110
12:00 am
V
55 °F 30 mi - Var 000° 0 kt METAR CYYJ 030700Z 00000KT 30SM FEW180 SCT220 13/13 A2985 RMK AC2CI2 SLP109

2 luglio 2022

Tempo Codice Tempo metereologico Temp. Vista Base nuvolosa Vento METAR/SPECI
11:00 pm
V
57 °F 30 mi 19.000 ft 090° 090° 3 kt METAR CYYJ 030600Z 09003KT 30SM BKN190 14/12 A2984 RMK AC5 SLP107
10:00 pm
V
57 °F 30 mi 18.000 ft Var Var 2 kt METAR CYYJ 030500Z VRB02KT 30SM FEW050 BKN180 BKN240 14/13 A2985 RMK SC1AC6CI1 SC TR SLP111 DENSITY ALT 100FT
9:00 pm
V
59 °F 30 mi 18.000 ft 020° 020° 4 kt METAR CYYJ 030400Z 02004KT 30SM FEW030TCU BKN180 BKN240 15/12 A2983 RMK TCU1AC6CI1 TCU TR SLP103 DENSITY ALT 200FT
8:00 pm
V
61 °F 30 mi 19.000 ft 060° 060° 6 kt METAR CYYJ 030300Z 06006KT 30SM FEW030TCU BKN190 BKN240 16/11 A2983 RMK TCU1AC6CI1 TCU TR SLP103 DENSITY ALT 400FT
7:00 pm
V
63 °F 30 mi 24.000 ft 040° 040° 6 kt METAR CYYJ 030200Z 04006KT 30SM FEW030TCU SCT200 BKN240 17/12 A2983 RMK TCU1CC3CI3 TCU TR SLP102 DENSITY ALT 500FT
6:00 pm
V
66 °F 30 mi 25.000 ft 090° 090° 6 kt METAR CYYJ 030100Z 09006KT 30SM FEW030TCU FEW200 BKN250 19/11 A2983 RMK TCU1CC2CI5 TCU TR SLP105 DENSITY ALT 700FT
5:00 pm
V
66 °F 30 mi 25.000 ft 120° 120° 9 kt METAR CYYJ 030000Z 12009KT 30SM FEW028TCU FEW180 BKN250 19/11 A2986 RMK TCU1AC2CI5 TCU TR SLP112 DENSITY ALT 600FT
4:00 pm
V
68 °F 30 mi 25.000 ft 120° 120° 8 kt METAR CYYJ 022300Z 12008KT 30SM FEW030 SCT190 BKN250 20/12 A2988 RMK CU1AC4CI3 CU TR SLP119 DENSITY ALT 700FT
3:00 pm
V
68 °F 30 mi 25.000 ft 120° 120° 8 kt METAR CYYJ 022200Z 12008KT 30SM FEW030 FEW190 BKN250 20/12 A2989 RMK CU1AC2CI5 CU TR SLP125 DENSITY ALT 700FT
2:00 pm
V
66 °F 30 mi 25.000 ft 140° 140° 9 kt METAR CYYJ 022100Z 14009KT 30SM FEW030 FEW200 BKN250 19/12 A2992 RMK CU1CI2CI5 CU TR SLP133 DENSITY ALT 600FT
1:00 pm
V
66 °F 30 mi 25.000 ft 130° 130° 8 kt METAR CYYJ 022000Z 13008KT 30SM FEW030 BKN250 19/12 A2993 RMK CU1CI7 CU TR SLP138 DENSITY ALT 500FT
12:00 pm
V
66 °F 30 mi 25.000 ft 100° 100° 7 kt METAR CYYJ 021900Z 10007KT 070V130 30SM FEW028 BKN250 19/12 A2994 RMK CU1CI7 CU TR SLP141 DENSITY ALT 500FT
11:00 am
V
63 °F 30 mi 25.000 ft 130° 130° 8 kt METAR CYYJ 021800Z 13008KT 30SM FEW025 BKN250 17/11 A2996 RMK CU1CI6 CU TR SLP146 DENSITY ALT 300FT
10:00 am
V
61 °F 30 mi 25.000 ft 110° 110° 6 kt METAR CYYJ 021700Z 11006KT 30SM FEW035 BKN250 16/11 A2996 RMK SC1CI6 SC TR SLP148 DENSITY ALT 200FT
9:00 am
V
61 °F 30 mi - 120° 120° 6 kt METAR CYYJ 021600Z 12006KT 30SM FEW030 SCT250 16/12 A2997 RMK SC1CI4 SC TR SLP151 DENSITY ALT 100FT
8:00 am
V
61 °F 30 mi 25.000 ft 280° 280° 3 kt METAR CYYJ 021500Z 28003KT 240V310 30SM FEW028 FEW050 BKN250 16/12 A2998 RMK SC1SC1CI5 SC TR SC TR SLP153 DENSITY ALT 200FT
Dati più vecchi

Scarica la nostra applicazione

Facile accesso a tutte le previsioni dell'aviazione sul tuo cellulare e tablet.
Con molte caratteristiche non disponibili sul sito web, come il supporto offline e una lista personale di aeroporti.

Noi e le terze parti seguiamo il tuo comportamento in internet sul nostro sito web con i cookie. Se continui, riteniamo che tu sia d'accordo con la nostra politica sui cookie. Per saperne di più